Time;durP1;ratioP1;P1;durP2;ratioP2;P2;SDS_P1;SDS_P2;PMS_P1;PMS_P2;Temp;Humidity;BMP_temperature;BMP_pressure;BME280_temperature;BME280_humidity;BME280_pressure;Samples;Min_cycle;Max_cycle;Signal;HPM_P1;HPM_P2
2021/08/31 00:00:15;;;;;;;9.00;6.10;;;;;;;10.06;85.00;97562.59;1753617;82;20960;-80
2021/08/31 00:02:44;;;;;;;8.63;5.97;;;;;;;9.99;85.95;97557.97;1753552;82;21017;-79
2021/08/31 00:05:13;;;;;;;7.95;6.55;;;;;;;9.95;86.11;97553.69;1753782;82;21041;-79
2021/08/31 00:07:40;;;;;;;8.10;6.80;;;;;;;9.94;86.21;97556.81;1749616;82;21110;-79
2021/08/31 00:10:09;;;;;;;13.75;7.45;;;;;;;9.93;85.72;97555.09;1720922;82;21004;-80
2021/08/31 00:12:37;;;;;;;8.38;5.92;;;;;;;9.89;86.01;97554.78;1720746;83;20996;-79
2021/08/31 00:15:05;;;;;;;6.75;6.05;;;;;;;9.88;85.71;97557.00;1720565;83;21001;-80
2021/08/31 00:17:32;;;;;;;7.83;6.25;;;;;;;9.85;86.54;97558.44;1720704;83;21406;-80
2021/08/31 00:19:59;;;;;;;7.42;5.92;;;;;;;9.81;85.95;97559.45;1726332;82;21063;-80
2021/08/31 00:22:26;;;;;;;11.90;6.87;;;;;;;9.79;86.07;97562.63;1753539;82;21616;-80
2021/08/31 00:24:53;;;;;;;7.15;6.40;;;;;;;9.75;87.08;97564.48;1753631;81;21016;-80
2021/08/31 00:27:19;;;;;;;8.70;6.08;;;;;;;9.74;86.39;97557.47;1753480;82;20980;-80
2021/08/31 00:29:45;;;;;;;6.97;6.22;;;;;;;9.72;86.60;97564.13;1753688;81;20961;-80
2021/08/31 00:32:12;;;;;;;7.08;6.12;;;;;;;9.69;86.55;97569.55;1746678;81;21016;-80
2021/08/31 00:34:38;;;;;;;8.10;6.87;;;;;;;9.69;86.57;97563.38;1725941;83;21016;-80
2021/08/31 00:37:05;;;;;;;9.53;6.58;;;;;;;9.70;86.36;97559.80;1726102;83;20956;-80
2021/08/31 00:39:32;;;;;;;6.92;5.85;;;;;;;9.71;86.38;97558.91;1726098;82;21035;-80
2021/08/31 00:41:58;;;;;;;10.10;6.12;;;;;;;9.69;86.70;97558.08;1723063;82;21040;-79
2021/08/31 00:44:28;;;;;;;8.08;5.92;;;;;;;9.71;87.06;97562.41;1726574;80;21442;-80
2021/08/31 00:46:56;;;;;;;6.40;5.62;;;;;;;9.73;87.01;97565.02;1726068;82;20984;-80
2021/08/31 00:49:27;;;;;;;6.47;5.30;;;;;;;9.73;87.12;97568.98;1725957;82;21035;-79
2021/08/31 00:51:57;;;;;;;6.05;5.10;;;;;;;9.74;87.58;97569.37;1726298;83;20996;-80
2021/08/31 00:54:27;;;;;;;7.25;5.42;;;;;;;9.76;87.51;97574.19;1726141;83;21012;-79
2021/08/31 00:56:54;;;;;;;6.33;5.08;;;;;;;9.80;87.44;97576.26;1744859;82;21428;-80
2021/08/31 00:59:21;;;;;;;6.58;5.35;;;;;;;9.80;87.62;97577.11;1757097;82;21056;-80
2021/08/31 01:01:56;;;;;;;8.65;5.05;;;;;;;9.81;87.88;97566.95;1756921;81;20992;-80
2021/08/31 01:04:28;;;;;;;7.25;5.20;;;;;;;9.86;88.58;97579.58;1744100;82;20993;-80
2021/08/31 01:06:57;;;;;;;6.17;5.00;;;;;;;9.90;88.06;97578.56;1754505;82;21044;-80
2021/08/31 01:09:25;;;;;;;7.55;4.55;;;;;;;9.90;88.11;97583.85;1756951;81;21015;-80
2021/08/31 01:11:54;;;;;;;5.72;4.78;;;;;;;9.91;88.08;97584.70;1734374;82;21465;-79
2021/08/31 01:14:25;;;;;;;7.85;4.55;;;;;;;9.94;88.41;97580.64;1724631;83;21067;-80
2021/08/31 01:16:52;;;;;;;6.85;5.22;;;;;;;9.95;88.56;97574.86;1754869;82;21350;-80
2021/08/31 01:19:29;;;;;;;6.80;5.15;;;;;;;10.00;88.19;97583.06;1756910;81;21027;-79
2021/08/31 01:21:55;;;;;;;5.75;4.87;;;;;;;9.98;88.14;97578.30;1756682;82;21048;-80
2021/08/31 01:24:21;;;;;;;5.90;4.90;;;;;;;9.98;88.40;97574.33;1736920;81;21004;-80
2021/08/31 01:26:50;;;;;;;7.00;5.40;;;;;;;9.95;87.82;97576.19;1726224;82;21044;-80
2021/08/31 01:29:16;;;;;;;5.70;5.10;;;;;;;9.93;87.79;97575.39;1726142;82;21378;-79
2021/08/31 01:31:43;;;;;;;10.25;5.30;;;;;;;9.89;87.61;97574.63;1724461;82;21055;-80
2021/08/31 01:34:09;;;;;;;8.03;5.53;;;;;;;9.84;87.37;97571.28;1736589;82;21426;-80
2021/08/31 01:36:36;;;;;;;7.03;5.50;;;;;;;9.78;87.18;97572.34;1753656;82;21036;-79
2021/08/31 01:39:05;;;;;;;8.13;5.85;;;;;;;9.73;87.33;97571.63;1753526;81;21067;-80
2021/08/31 01:41:32;;;;;;;8.95;5.80;;;;;;;9.70;88.14;97575.69;1746222;82;21041;-79
2021/08/31 01:43:59;;;;;;;6.83;5.62;;;;;;;9.65;87.37;97582.47;1719610;83;21064;-79
2021/08/31 01:46:25;;;;;;;9.70;6.45;;;;;;;9.60;87.29;97576.45;1741008;82;21000;-80
2021/08/31 01:48:52;;;;;;;8.03;5.78;;;;;;;9.57;87.48;97574.77;1753879;82;21020;-80
2021/08/31 01:51:18;;;;;;;6.28;5.58;;;;;;;9.54;87.70;97578.83;1753866;82;20988;-80
2021/08/31 01:53:45;;;;;;;5.80;5.28;;;;;;;9.48;87.50;97577.23;1746942;81;20996;-79
2021/08/31 01:56:11;;;;;;;7.28;6.58;;;;;;;9.45;87.66;97581.77;1720962;83;21028;-80
2021/08/31 01:58:38;;;;;;;6.87;5.53;;;;;;;9.40;87.57;97569.15;1720840;83;21019;-80
2021/08/31 02:01:04;;;;;;;7.50;5.87;;;;;;;9.36;87.87;97577.64;1720809;83;20972;-79
2021/08/31 02:03:31;;;;;;;6.67;5.85;;;;;;;9.32;87.93;97572.91;1723844;82;21072;-79
2021/08/31 02:05:58;;;;;;;7.08;6.05;;;;;;;9.29;87.60;97571.67;1753772;81;21443;-79
2021/08/31 02:08:24;;;;;;;8.43;6.60;;;;;;;9.27;87.77;97570.88;1753850;82;21000;-80
2021/08/31 02:10:51;;;;;;;8.18;6.15;;;;;;;9.24;87.56;97571.84;1753921;82;21004;-79
2021/08/31 02:13:18;;;;;;;7.97;6.22;;;;;;;9.21;87.69;97573.23;1753721;82;21458;-79
2021/08/31 02:15:44;;;;;;;8.60;6.20;;;;;;;9.18;87.78;97571.16;1743641;81;21406;-79
2021/08/31 02:18:11;;;;;;;7.58;6.45;;;;;;;9.15;87.87;97572.11;1720854;82;21079;-80
2021/08/31 02:20:38;;;;;;;8.33;6.60;;;;;;;9.13;88.36;97570.44;1720602;83;21036;-79
2021/08/31 02:23:04;;;;;;;6.92;5.97;;;;;;;9.09;87.96;97571.84;1720766;83;21016;-80
2021/08/31 02:25:31;;;;;;;7.53;6.15;;;;;;;9.08;88.84;97576.72;1720366;83;21067;-80
2021/08/31 02:27:58;;;;;;;7.35;6.50;;;;;;;9.07;88.47;97576.31;1730483;82;21036;-80
2021/08/31 02:30:24;;;;;;;8.08;6.72;;;;;;;9.07;88.28;97572.80;1753657;81;21032;-80
2021/08/31 02:32:51;;;;;;;7.53;6.33;;;;;;;9.05;88.20;97572.84;1755745;81;21005;-80
2021/08/31 02:35:19;;;;;;;8.45;6.35;;;;;;;9.03;88.40;97572.03;1756791;82;20968;-80
2021/08/31 02:37:45;;;;;;;6.67;6.00;;;;;;;9.01;88.45;97572.98;1756984;82;20999;-80
2021/08/31 02:40:13;;;;;;;7.65;6.15;;;;;;;8.98;88.81;97570.83;1743745;82;21011;-80
2021/08/31 02:42:39;;;;;;;6.90;6.20;;;;;;;8.95;88.77;97570.94;1725180;82;21083;-80
2021/08/31 02:45:07;;;;;;;7.42;6.28;;;;;;;8.94;88.73;97566.58;1726356;82;21438;-80
2021/08/31 02:47:33;;;;;;;8.10;6.60;;;;;;;8.95;88.32;97573.59;1726481;83;21032;-81
2021/08/31 02:50:00;;;;;;;8.70;5.97;;;;;;;8.97;88.25;97573.07;1726282;83;20999;-80
2021/08/31 02:52:26;;;;;;;11.15;6.05;;;;;;;9.00;88.53;97578.72;1745727;82;20921;-81
2021/08/31 02:54:52;;;;;;;8.30;5.42;;;;;;;9.01;88.55;97576.48;1756987;82;21394;-80
2021/08/31 02:57:19;;;;;;;6.05;5.10;;;;;;;9.04;88.90;97576.40;1757068;81;21043;-81
2021/08/31 02:59:45;;;;;;;5.78;5.05;;;;;;;9.06;88.85;97579.84;1757091;81;21003;-80
2021/08/31 03:02:12;;;;;;;5.55;5.00;;;;;;;9.08;89.34;97581.12;1756909;81;21052;-80
2021/08/31 03:04:44;;;;;;;7.15;4.92;;;;;;;9.10;89.10;97582.81;1732024;81;20999;-80
2021/08/31 03:07:14;;;;;;;5.67;4.35;;;;;;;9.12;89.18;97578.80;1726185;83;21015;-80
2021/08/31 03:09:42;;;;;;;8.60;5.10;;;;;;;9.15;89.42;97580.05;1726048;83;21015;-81
2021/08/31 03:12:09;;;;;;;5.20;4.67;;;;;;;9.20;89.60;97579.45;1726227;82;21249;-80
2021/08/31 03:14:38;;;;;;;7.97;4.33;;;;;;;9.23;89.74;97579.81;1726744;82;21008;-80
2021/08/31 03:17:06;;;;;;;6.22;4.30;;;;;;;9.27;89.98;97573.52;1726109;83;21457;-80
2021/08/31 03:19:33;;;;;;;4.90;4.35;;;;;;;9.30;89.80;97571.23;1726112;83;21461;-81
2021/08/31 03:22:03;;;;;;;4.72;4.15;;;;;;;9.32;89.73;97575.56;1726114;82;21003;-80
2021/08/31 03:24:32;;;;;;;6.92;4.58;;;;;;;9.33;89.59;97582.57;1726010;83;21067;-80
2021/08/31 03:26:58;;;;;;;6.35;4.72;;;;;;;9.34;89.75;97580.80;1728860;80;21458;-80
2021/08/31 03:29:25;;;;;;;5.70;4.33;;;;;;;9.35;90.07;97582.53;1756780;82;21032;-80
2021/08/31 03:31:51;;;;;;;5.25;4.30;;;;;;;9.36;90.20;97585.58;1756457;82;21418;-80
2021/08/31 03:34:18;;;;;;;5.37;4.80;;;;;;;9.35;90.31;97586.02;1753847;82;21032;-80
2021/08/31 03:36:45;;;;;;;5.78;4.70;;;;;;;9.36;89.76;97589.09;1731106;81;21422;-81
2021/08/31 03:39:12;;;;;;;5.83;4.62;;;;;;;9.35;90.19;97589.98;1720753;83;20995;-80
2021/08/31 03:41:39;;;;;;;4.62;4.10;;;;;;;9.34;90.57;97593.55;1720701;83;21020;-80
2021/08/31 03:44:05;;;;;;;6.70;4.72;;;;;;;9.31;90.66;97598.08;1720887;83;21007;-80
2021/08/31 03:46:32;;;;;;;8.30;4.67;;;;;;;9.29;91.00;97591.52;1739629;82;20996;-80
2021/08/31 03:49:01;;;;;;;6.47;4.53;;;;;;;9.31;89.84;97594.11;1753763;82;20979;-81
2021/08/31 03:51:28;;;;;;;9.93;4.90;;;;;;;9.30;89.71;97594.55;1753794;81;21136;-81
2021/08/31 03:53:55;;;;;;;5.50;4.62;;;;;;;9.30;89.65;97591.91;1748244;82;21004;-80
2021/08/31 03:56:21;;;;;;;8.40;4.60;;;;;;;9.30;89.72;97593.23;1720817;83;21028;-80
2021/08/31 03:58:48;;;;;;;7.37;4.92;;;;;;;9.30;89.52;97601.64;1720688;83;21410;-80
2021/08/31 04:01:14;;;;;;;13.22;5.50;;;;;;;9.28;89.78;97599.48;1720710;83;21016;-80
2021/08/31 04:03:40;;;;;;;8.20;4.95;;;;;;;9.28;89.42;97599.05;1722725;82;21080;-80
2021/08/31 04:06:07;;;;;;;8.80;5.47;;;;;;;9.26;89.40;97596.88;1725732;82;21020;-80
2021/08/31 04:08:33;;;;;;;7.15;5.55;;;;;;;9.23;89.23;97595.20;1753815;81;20969;-80
2021/08/31 04:11:00;;;;;;;6.53;5.37;;;;;;;9.23;89.39;97599.64;1753707;82;21501;-80
2021/08/31 04:13:27;;;;;;;5.97;5.22;;;;;;;9.23;88.71;97607.57;1745689;82;20989;-80
2021/08/31 04:15:55;;;;;;;8.75;6.05;;;;;;;9.22;88.83;97607.17;1733103;82;20997;-80
2021/08/31 04:18:22;;;;;;;6.20;4.92;;;;;;;9.22;89.08;97606.70;1720840;83;21433;-80
2021/08/31 04:20:48;;;;;;;5.83;5.03;;;;;;;9.25;89.22;97609.70;1720636;83;21193;-80
2021/08/31 04:23:15;;;;;;;7.37;5.22;;;;;;;9.26;88.99;97614.55;1738806;82;20973;-80
2021/08/31 04:25:41;;;;;;;6.47;5.22;;;;;;;9.28;89.35;97611.38;1753617;82;21453;-80
2021/08/31 04:28:08;;;;;;;8.35;5.20;;;;;;;9.30;89.18;97620.16;1753730;82;20973;-80
2021/08/31 04:30:34;;;;;;;6.90;5.17;;;;;;;9.32;89.23;97617.88;1753788;82;21012;-80
2021/08/31 04:33:00;;;;;;;7.17;4.78;;;;;;;9.35;89.06;97612.47;1755029;82;21012;-80
2021/08/31 04:35:27;;;;;;;7.00;5.05;;;;;;;9.38;89.84;97621.64;1733516;81;21004;-80
2021/08/31 04:37:53;;;;;;;5.37;4.78;;;;;;;9.44;89.06;97611.78;1726230;82;20969;-80
2021/08/31 04:40:21;;;;;;;7.15;5.40;;;;;;;9.49;89.17;97614.70;1728530;82;21437;-80
2021/08/31 04:42:48;;;;;;;10.45;4.80;;;;;;;9.53;89.04;97612.82;1756971;81;21123;-80
2021/08/31 04:45:14;;;;;;;5.33;4.83;;;;;;;9.59;88.36;97611.30;1754746;82;20992;-81
2021/08/31 04:47:41;;;;;;;9.23;4.87;;;;;;;9.63;88.30;97608.09;1756518;82;21497;-81
2021/08/31 04:50:08;;;;;;;6.83;4.25;;;;;;;9.70;88.34;97614.05;1756932;82;20949;-81
2021/08/31 04:52:35;;;;;;;7.42;4.55;;;;;;;9.73;88.47;97607.34;1757003;82;21020;-81
2021/08/31 04:55:02;;;;;;;5.00;4.25;;;;;;;9.76;88.31;97610.75;1754766;81;21021;-81
2021/08/31 04:57:29;;;;;;;7.85;4.45;;;;;;;9.82;88.41;97603.53;1730198;82;21000;-81
2021/08/31 04:59:55;;;;;;;8.83;4.62;;;;;;;9.88;88.30;97607.28;1752026;82;20969;-81
2021/08/31 05:02:22;;;;;;;9.30;4.45;;;;;;;9.95;88.15;97607.51;1731227;82;21036;-80
2021/08/31 05:04:48;;;;;;;6.40;4.62;;;;;;;10.00;88.15;97607.34;1756917;82;21418;-81
2021/08/31 05:07:15;;;;;;;10.00;4.37;;;;;;;10.07;88.16;97606.67;1757171;82;21012;-81
2021/08/31 05:09:42;;;;;;;7.45;3.92;;;;;;;10.10;87.78;97611.44;1738774;81;20988;-80
2021/08/31 05:12:08;;;;;;;5.78;4.20;;;;;;;10.16;87.62;97611.22;1726249;82;21009;-81
2021/08/31 05:14:35;;;;;;;5.22;4.40;;;;;;;10.22;87.48;97611.92;1726113;82;20980;-80
2021/08/31 05:17:03;;;;;;;31.87;16.65;;;;;;;10.25;86.90;97615.33;1724897;82;21024;-81
2021/08/31 05:19:32;;;;;;;8.20;5.45;;;;;;;10.29;87.35;97608.13;1724792;82;21079;-80
2021/08/31 05:22:04;;;;;;;9.68;4.80;;;;;;;10.34;87.53;97606.19;1750048;82;21380;-81
2021/08/31 05:24:32;;;;;;;7.35;4.97;;;;;;;10.41;87.41;97602.42;1756085;82;21048;-81
2021/08/31 05:26:58;;;;;;;8.78;4.90;;;;;;;10.49;86.62;97604.83;1725015;82;21036;-81
2021/08/31 05:29:25;;;;;;;8.98;4.90;;;;;;;10.58;86.70;97597.48;1744277;82;20928;-81
2021/08/31 05:31:53;;;;;;;5.75;4.65;;;;;;;10.63;85.96;97591.07;1724855;83;21016;-81
2021/08/31 05:34:20;;;;;;;6.83;5.37;;;;;;;10.74;86.17;97598.64;1709471;81;21462;-81
2021/08/31 05:36:47;;;;;;;9.80;5.65;;;;;;;10.88;86.10;97597.27;1709090;84;21473;-81
2021/08/31 05:39:14;;;;;;;7.50;5.20;;;;;;;11.01;86.11;97589.23;1718826;83;21387;-81
2021/08/31 05:41:41;;;;;;;7.70;4.80;;;;;;;11.16;85.69;97589.12;1727131;82;21032;-81
2021/08/31 05:44:07;;;;;;;11.50;6.00;;;;;;;11.34;85.70;97595.98;1727247;83;20991;-81
2021/08/31 05:46:34;;;;;;;9.15;5.30;;;;;;;11.49;85.43;97588.73;1720227;83;21409;-81
2021/08/31 05:49:01;;;;;;;7.58;5.50;;;;;;;11.66;85.32;97596.47;1693622;84;21510;-81
2021/08/31 05:51:27;;;;;;;8.38;5.08;;;;;;;11.81;85.04;97591.02;1693523;85;21024;-81
2021/08/31 05:53:55;;;;;;;5.65;4.60;;;;;;;11.97;85.08;97593.03;1693658;85;21037;-81
2021/08/31 05:56:22;;;;;;;6.10;4.80;;;;;;;12.12;84.93;97588.42;1713782;83;20967;-81
2021/08/31 05:58:49;;;;;;;10.48;5.55;;;;;;;12.26;84.50;97590.96;1722991;83;20991;-82
2021/08/31 06:01:16;;;;;;;8.50;5.25;;;;;;;12.37;84.20;97588.70;1727171;82;21448;-81
2021/08/31 06:03:42;;;;;;;6.83;4.78;;;;;;;12.50;83.94;97591.67;1727052;82;21059;-81
2021/08/31 06:06:09;;;;;;;6.80;5.28;;;;;;;12.63;83.37;97589.81;1716878;82;21022;-81
2021/08/31 06:08:36;;;;;;;11.35;5.58;;;;;;;12.74;83.53;97592.01;1709749;83;21009;-81
2021/08/31 06:11:02;;;;;;;6.78;4.70;;;;;;;12.82;82.89;97596.48;1709400;84;21009;-81
2021/08/31 06:13:29;;;;;;;8.05;4.83;;;;;;;12.89;81.21;97595.75;1709702;84;21009;-82
2021/08/31 06:15:55;;;;;;;5.78;5.08;;;;;;;12.95;82.28;97599.45;1711379;83;20977;-81
2021/08/31 06:18:21;;;;;;;5.80;4.92;;;;;;;13.03;82.44;97591.11;1720003;83;21488;-80
2021/08/31 06:20:48;;;;;;;9.93;5.28;;;;;;;13.06;81.28;97593.19;1727080;82;20939;-82
2021/08/31 06:23:14;;;;;;;8.13;4.97;;;;;;;13.07;80.74;97596.70;1726726;82;21054;-81
2021/08/31 06:25:40;;;;;;;8.35;5.22;;;;;;;13.07;81.42;97594.91;1700497;84;21025;-83
2021/08/31 06:28:07;;;;;;;6.78;5.80;;;;;;;13.12;81.50;97592.52;1685405;84;21115;-81
2021/08/31 06:30:33;;;;;;;5.95;5.10;;;;;;;13.17;81.79;97584.69;1703078;83;22231;-82
2021/08/31 06:33:00;;;;;;;5.85;4.83;;;;;;;13.23;81.49;97591.53;1696372;82;21073;-82
2021/08/31 06:35:26;;;;;;;9.78;5.35;;;;;;;13.26;81.01;97578.55;1709520;82;21020;-82
2021/08/31 06:37:53;;;;;;;6.92;5.42;;;;;;;13.32;81.11;97584.91;1686491;83;21507;-82
2021/08/31 06:40:20;;;;;;;5.92;5.33;;;;;;;13.40;80.96;97585.41;1688824;83;21437;-82
2021/08/31 06:42:46;;;;;;;10.13;5.35;;;;;;;13.50;80.99;97582.34;1685505;84;21082;-81
2021/08/31 06:45:12;;;;;;;7.90;6.08;;;;;;;13.55;80.77;97586.98;1685204;85;21046;-82
2021/08/31 06:47:41;;;;;;;8.80;5.58;;;;;;;13.65;81.03;97586.92;1707616;82;21067;-82
2021/08/31 06:50:14;;;;;;;8.85;5.90;;;;;;;13.76;81.00;97590.40;1720303;82;21003;-81
2021/08/31 06:52:38;;;;;;;8.60;5.87;;;;;;;13.89;80.72;97589.77;1710228;84;21539;-81
2021/08/31 06:55:07;;;;;;;7.95;5.37;;;;;;;14.00;80.08;97580.80;1724062;83;20948;-81
2021/08/31 06:57:34;;;;;;;8.53;5.05;;;;;;;14.10;79.75;97582.52;1723874;83;21023;-81
2021/08/31 07:00:00;;;;;;;7.03;5.05;;;;;;;14.20;77.71;97587.77;1724076;83;21070;-80
2021/08/31 07:02:27;;;;;;;7.20;5.25;;;;;;;14.32;78.78;97586.27;1723937;83;21405;-81
2021/08/31 07:04:54;;;;;;;8.43;5.30;;;;;;;14.46;78.21;97582.91;1722058;83;20999;-81
2021/08/31 07:07:22;;;;;;;8.95;5.92;;;;;;;14.60;78.56;97579.97;1722859;82;21086;-82
2021/08/31 07:09:48;;;;;;;11.73;6.78;;;;;;;14.73;78.42;97578.38;1708067;83;20972;-83
2021/08/31 07:12:14;;;;;;;6.75;5.45;;;;;;;14.86;78.17;97583.95;1708297;82;21488;-81
2021/08/31 07:14:41;;;;;;;8.15;4.70;;;;;;;14.98;77.67;97582.89;1708719;84;21078;-82
2021/08/31 07:17:08;;;;;;;8.10;5.62;;;;;;;15.04;77.38;97581.25;1709154;84;20980;-82
2021/08/31 07:19:34;;;;;;;7.83;5.17;;;;;;;15.13;77.09;97575.87;1709322;84;20991;-83
2021/08/31 07:22:01;;;;;;;11.28;5.70;;;;;;;15.25;76.94;97578.34;1709164;84;21484;-82
2021/08/31 07:24:29;;;;;;;12.05;5.65;;;;;;;15.38;76.76;97575.38;1709275;84;21390;-82
2021/08/31 07:26:56;;;;;;;12.07;5.70;;;;;;;15.54;76.78;97573.17;1708966;84;21452;-82
2021/08/31 07:29:22;;;;;;;19.92;14.80;;;;;;;15.68;75.83;97576.38;1708888;84;21504;-83
2021/08/31 07:31:51;;;;;;;16.85;8.88;;;;;;;15.81;75.95;97584.55;1679236;85;21029;-79
2021/08/31 07:34:18;;;;;;;15.50;8.55;;;;;;;15.89;74.35;97586.31;1728233;82;21048;-81
2021/08/31 07:36:45;;;;;;;13.10;8.05;;;;;;;16.00;75.04;97587.53;1741001;82;21024;-82
2021/08/31 07:39:13;;;;;;;14.50;8.88;;;;;;;16.16;75.00;97585.70;1718823;83;21430;-80
2021/08/31 07:41:40;;;;;;;13.28;7.97;;;;;;;16.25;72.99;97588.75;1740836;82;21067;-83
2021/08/31 07:44:06;;;;;;;12.28;8.70;;;;;;;16.25;73.30;97585.62;1753185;82;21332;-81
2021/08/31 07:46:33;;;;;;;14.10;8.85;;;;;;;16.30;72.60;97583.53;1753143;82;20988;-81
2021/08/31 07:49:02;;;;;;;10.72;7.80;;;;;;;16.43;73.59;97581.44;1751007;82;20977;-80
2021/08/31 07:51:28;;;;;;;13.80;7.85;;;;;;;16.55;71.04;97575.36;1732314;82;21068;-81
2021/08/31 07:53:54;;;;;;;8.65;6.90;;;;;;;16.56;71.01;97578.41;1747238;82;21017;-82
2021/08/31 07:56:21;;;;;;;9.75;7.65;;;;;;;16.66;71.65;97579.19;1750272;82;21509;-81
2021/08/31 07:58:48;;;;;;;11.80;7.28;;;;;;;16.76;72.27;97574.52;1740500;82;20981;-83
2021/08/31 08:01:14;;;;;;;9.83;7.15;;;;;;;16.85;71.99;97574.89;1720186;82;20980;-81
2021/08/31 08:03:41;;;;;;;8.58;7.03;;;;;;;17.00;71.90;97580.65;1717066;83;20945;-82
2021/08/31 08:06:09;;;;;;;10.88;6.55;;;;;;;17.10;69.76;97576.06;1692505;84;21469;-80
2021/08/31 08:08:38;;;;;;;10.68;6.42;;;;;;;17.18;70.40;97582.30;1683143;83;21006;-81
2021/08/31 08:11:06;;;;;;;7.58;5.78;;;;;;;17.21;70.33;97584.30;1754277;82;20993;-79
2021/08/31 08:13:32;;;;;;;11.93;6.75;;;;;;;17.28;69.89;97579.41;1691429;85;21422;-81
2021/08/31 08:16:00;;;;;;;11.28;8.33;;;;;;;17.28;67.50;97582.09;1691459;85;21032;-80
2021/08/31 08:18:26;;;;;;;10.23;7.05;;;;;;;17.28;69.09;97580.75;1691060;85;21024;-80
2021/08/31 08:20:52;;;;;;;9.60;7.45;;;;;;;17.37;67.77;97583.31;1691225;85;21651;-80
2021/08/31 08:23:19;;;;;;;11.05;6.55;;;;;;;17.44;69.01;97577.08;1750624;82;20941;-80
2021/08/31 08:25:45;;;;;;;10.10;6.28;;;;;;;17.54;69.73;97584.91;1752285;82;21039;-80
2021/08/31 08:28:12;;;;;;;12.45;6.05;;;;;;;17.64;69.62;97582.00;1724425;82;20988;-80
2021/08/31 08:30:39;;;;;;;10.55;6.85;;;;;;;17.70;67.82;97582.55;1725118;82;21620;-80
2021/08/31 08:33:05;;;;;;;9.45;6.30;;;;;;;17.69;68.21;97572.34;1719874;82;21377;-79
2021/08/31 08:35:32;;;;;;;10.10;6.80;;;;;;;17.74;67.55;97575.58;1734227;82;21032;-79
2021/08/31 08:37:59;;;;;;;12.07;6.33;;;;;;;17.85;67.51;97571.32;1725413;82;21445;-79
2021/08/31 08:40:27;;;;;;;9.45;5.75;;;;;;;17.93;68.10;97568.50;1725325;83;21022;-79
2021/08/31 08:42:53;;;;;;;8.53;7.60;;;;;;;18.00;67.36;97572.97;1736212;82;20973;-81
2021/08/31 08:45:21;;;;;;;12.20;6.90;;;;;;;18.00;66.21;97574.31;1738534;82;20992;-80
2021/08/31 08:47:48;;;;;;;11.65;7.53;;;;;;;17.94;65.99;97568.03;1742815;82;21029;-80
2021/08/31 08:50:14;;;;;;;11.45;7.47;;;;;;;17.95;67.72;97566.56;1729932;82;21031;-81
2021/08/31 08:52:41;;;;;;;13.48;7.25;;;;;;;17.99;66.38;97559.20;1749424;82;20996;-81
2021/08/31 08:55:10;;;;;;;10.48;6.45;;;;;;;18.01;67.70;97560.41;1725631;82;21146;-83
2021/08/31 08:57:37;;;;;;;13.95;6.53;;;;;;;18.08;67.74;97560.42;1725990;82;21032;-82
2021/08/31 09:00:07;;;;;;;12.53;6.87;;;;;;;18.08;67.68;97561.77;1724574;83;21000;-84
2021/08/31 09:02:41;;;;;;;9.75;6.05;;;;;;;18.06;66.96;97565.84;1727842;82;21489;-82
2021/08/31 09:05:13;;;;;;;11.88;5.53;;;;;;;18.07;67.66;97565.41;1730472;82;20992;-82
2021/08/31 09:07:41;;;;;;;8.75;5.83;;;;;;;18.04;67.24;97561.09;1749942;82;20945;-82
2021/08/31 09:10:22;;;;;;;13.48;6.03;;;;;;;17.99;67.61;97558.33;1738432;81;21063;-84
2021/08/31 09:12:52;;;;;;;16.97;11.28;;;;;;;17.93;67.65;97556.44;1730559;82;20949;-82
2021/08/31 09:15:27;;;;;;;9.53;5.45;;;;;;;17.83;67.58;97555.34;1735156;82;21500;-83
2021/08/31 09:18:11;;;;;;;8.23;5.67;;;;;;;17.75;67.79;97560.33;1727542;82;21067;-82
2021/08/31 09:20:49;;;;;;;10.78;5.90;;;;;;;17.67;68.15;97542.08;1724266;83;21104;-84
2021/08/31 09:23:29;;;;;;;8.85;4.90;;;;;;;17.63;68.44;97541.91;1723175;82;21004;-82
2021/08/31 09:26:09;;;;;;;9.88;5.62;;;;;;;17.58;68.47;97545.36;1732982;82;21245;-82
2021/08/31 09:28:39;;;;;;;12.63;5.87;;;;;;;17.50;68.53;97538.70;1738366;82;21050;-82
2021/08/31 09:31:10;;;;;;;10.20;5.92;;;;;;;17.43;68.67;97548.08;1743374;82;21039;-83
2021/08/31 09:33:44;;;;;;;10.18;5.75;;;;;;;17.36;69.00;97549.45;1755973;82;21071;-82
2021/08/31 09:36:22;;;;;;;7.67;5.70;;;;;;;17.31;69.16;97546.22;1753422;81;21020;-82
2021/08/31 09:38:55;;;;;;;6.70;5.20;;;;;;;17.26;69.20;97542.02;1753352;82;20993;-82
2021/08/31 09:41:29;;;;;;;7.78;5.28;;;;;;;17.22;69.65;97543.16;1728171;82;21012;-82
2021/08/31 09:43:58;;;;;;;11.30;5.90;;;;;;;17.17;69.84;97543.06;1716827;83;21045;-82
2021/08/31 09:46:47;;;;;;;8.33;5.97;;;;;;;17.13;69.96;97545.95;1716843;83;21086;-83
2021/08/31 09:49:24;;;;;;;9.25;6.10;;;;;;;17.08;70.12;97547.20;1715626;82;21031;-84
2021/08/31 09:52:15;;;;;;;11.88;5.70;;;;;;;17.05;70.38;97544.23;1715526;82;21027;-84
2021/08/31 09:54:48;;;;;;;12.40;7.17;;;;;;;17.00;70.25;97552.54;1732583;82;20971;-84
2021/08/31 09:57:37;;;;;;;8.38;5.55;;;;;;;16.93;70.67;97546.34;1732398;83;21011;-83
2021/08/31 10:00:15;;;;;;;11.10;6.20;;;;;;;16.88;70.92;97548.81;1732525;83;20979;-83
2021/08/31 10:02:43;;;;;;;8.55;5.80;;;;;;;16.82;71.17;97549.18;1728351;82;21027;-83
2021/08/31 10:05:09;;;;;;;7.37;5.58;;;;;;;16.79;71.56;97550.73;1720479;83;20992;-83
2021/08/31 10:07:38;;;;;;;6.22;5.28;;;;;;;16.81;71.59;97551.98;1720401;83;21048;-83
2021/08/31 10:10:07;;;;;;;11.30;5.47;;;;;;;16.80;71.67;97552.44;1720395;83;21406;-83
2021/08/31 10:12:35;;;;;;;9.40;6.10;;;;;;;16.80;71.89;97565.82;1720095;83;21047;-84
2021/08/31 10:15:03;;;;;;;8.18;6.00;;;;;;;16.83;71.96;97567.45;1720647;82;21060;-83
2021/08/31 10:17:30;;;;;;;9.40;6.42;;;;;;;16.86;72.27;97568.61;1719250;83;21434;-83
2021/08/31 10:20:03;;;;;;;12.68;6.10;;;;;;;16.91;72.19;97562.48;1720098;83;21040;-83
2021/08/31 10:22:31;;;;;;;6.95;5.30;;;;;;;16.99;72.09;97557.98;1718710;83;21049;-83
2021/08/31 10:24:59;;;;;;;6.10;4.03;;;;;;;17.00;71.93;97557.89;1718766;83;20973;-84
2021/08/31 10:27:41;;;;;;;6.10;3.90;;;;;;;17.06;72.14;97551.80;1732395;82;21003;-83
2021/08/31 10:30:22;;;;;;;4.67;3.92;;;;;;;17.13;70.73;97551.78;1740294;82;21406;-80
2021/08/31 10:32:52;;;;;;;5.58;4.17;;;;;;;17.20;71.44;97553.59;1719453;82;21425;-84
2021/08/31 10:35:45;;;;;;;8.33;4.95;;;;;;;17.24;71.59;97553.28;1719558;83;21020;-80
2021/08/31 10:38:14;;;;;;;6.65;4.55;;;;;;;17.27;71.46;97553.09;1718409;82;21493;-79
2021/08/31 10:40:46;;;;;;;4.92;3.35;;;;;;;17.23;70.70;97555.59;1744740;82;21039;-82
2021/08/31 10:43:16;;;;;;;4.65;2.70;;;;;;;17.14;69.60;97554.36;1718409;83;21037;-82
2021/08/31 10:45:53;;;;;;;3.30;2.85;;;;;;;17.12;69.49;97556.30;1718759;83;21558;-84
2021/08/31 10:48:28;;;;;;;4.92;3.27;;;;;;;17.02;69.36;97557.30;1718685;83;21045;-83
2021/08/31 10:51:04;;;;;;;4.97;2.65;;;;;;;16.95;68.83;97556.45;1730654;82;20992;-82
2021/08/31 10:53:48;;;;;;;3.33;2.80;;;;;;;16.84;69.20;97562.00;1753229;82;21052;-82
2021/08/31 10:56:25;;;;;;;3.25;2.12;;;;;;;16.69;69.94;97561.13;1753509;82;21079;-83
2021/08/31 10:58:57;;;;;;;3.00;2.45;;;;;;;16.57;70.69;97565.91;1749203;82;20992;-81
2021/08/31 11:01:38;;;;;;;5.50;2.80;;;;;;;16.47;70.73;97565.12;1727091;82;21093;-80
2021/08/31 11:04:32;;;;;;;3.22;2.77;;;;;;;16.37;71.41;97570.66;1721597;82;21005;-80
2021/08/31 11:07:02;;;;;;;4.70;3.95;;;;;;;16.28;71.51;97569.37;1723796;82;20981;-82
2021/08/31 11:09:31;;;;;;;6.33;4.05;;;;;;;16.18;74.71;97562.85;1731766;82;20996;-81
2021/08/31 11:12:11;;;;;;;5.65;4.97;;;;;;;16.12;77.08;97569.91;1720304;83;21019;-80
2021/08/31 11:14:53;;;;;;;6.05;5.20;;;;;;;16.10;77.30;97569.99;1720542;82;21612;-81
2021/08/31 11:17:48;;;;;;;6.90;5.35;;;;;;;16.09;77.52;97573.62;1747002;81;21058;-81
2021/08/31 11:20:20;;;;;;;12.40;5.78;;;;;;;16.08;78.29;97576.77;1763404;81;21054;-81
2021/08/31 11:22:52;;;;;;;9.88;5.85;;;;;;;16.05;79.41;97576.96;1698262;83;21031;-81
2021/08/31 11:25:27;;;;;;;6.70;6.00;;;;;;;16.05;79.41;97579.63;1688769;84;21020;-80
2021/08/31 11:28:06;;;;;;;6.60;5.90;;;;;;;16.03;80.09;97565.48;1676355;84;20997;-80
2021/08/31 11:31:00;;;;;;;7.25;6.55;;;;;;;16.02;79.22;97570.95;1681428;84;21007;-82
2021/08/31 11:33:40;;;;;;;7.50;5.97;;;;;;;16.00;81.47;97571.03;1673999;84;21012;-80
2021/08/31 11:36:11;;;;;;;8.43;6.15;;;;;;;16.00;79.63;97571.03;1682665;83;21438;-81
2021/08/31 11:38:58;;;;;;;10.53;7.83;;;;;;;15.98;81.95;97567.56;1670943;84;21015;-79
2021/08/31 11:41:35;;;;;;;7.53;6.72;;;;;;;15.99;80.41;97571.98;1703211;83;21139;-83